createdAt,value
2023-03-06T00:01:57.459Z,99340.41
2023-03-06T00:04:36.615Z,99344.69
2023-03-06T00:07:16.322Z,99346.34
2023-03-06T00:10:08.852Z,99345.22
2023-03-06T00:12:48.410Z,99342.53
2023-03-06T00:15:39.514Z,99336.38
2023-03-06T00:18:19.427Z,99332.16
2023-03-06T00:21:11.126Z,99335.38
2023-03-06T00:23:50.403Z,99331.53
2023-03-06T00:26:19.251Z,99340.50
2023-03-06T00:28:47.854Z,99333.75
2023-03-06T00:31:40.099Z,99327.84
2023-03-06T00:34:19.411Z,99330.06
2023-03-06T00:36:47.440Z,99321.50
2023-03-06T00:39:15.872Z,99318.75
2023-03-06T00:41:45.384Z,99321.91
2023-03-06T00:44:14.686Z,99316.03
2023-03-06T00:46:42.332Z,99318.22
2023-03-06T00:49:38.060Z,99326.78
2023-03-06T00:52:23.891Z,99316.94
2023-03-06T00:54:52.326Z,99317.75
2023-03-06T00:57:20.177Z,99311.44
2023-03-06T00:59:47.692Z,99304.81
2023-03-06T01:02:20.106Z,99305.63
2023-03-06T01:04:49.587Z,99296.03
2023-03-06T01:07:39.164Z,99292.94
2023-03-06T01:10:08.261Z,99299.37
2023-03-06T01:12:54.420Z,99290.81
2023-03-06T01:15:22.984Z,99297.72
2023-03-06T01:18:24.448Z,99296.94
2023-03-06T01:20:51.905Z,99294.34
2023-03-06T01:23:20.438Z,99283.94
2023-03-06T01:25:48.409Z,99279.97
2023-03-06T01:28:44.460Z,99281.50
2023-03-06T01:31:33.517Z,99279.72
2023-03-06T01:34:28.008Z,99276.84
2023-03-06T01:37:12.583Z,99273.88
2023-03-06T01:40:05.330Z,99272.00
2023-03-06T01:42:52.770Z,99269.09
2023-03-06T01:45:51.154Z,99270.81
2023-03-06T01:48:30.216Z,99277.03
2023-03-06T01:51:24.511Z,99271.88
2023-03-06T01:54:09.619Z,99263.66
2023-03-06T01:57:18.710Z,99271.16
2023-03-06T02:00:11.293Z,99270.37
2023-03-06T02:02:42.706Z,99266.91
2023-03-06T02:05:10.795Z,99279.16
2023-03-06T02:07:38.930Z,99268.59
2023-03-06T02:10:33.425Z,99272.00
2023-03-06T02:13:01.816Z,99268.56
2023-03-06T02:15:31.686Z,99261.63
2023-03-06T02:18:00.328Z,99262.00
2023-03-06T02:20:44.792Z,99266.84
2023-03-06T02:23:25.377Z,99271.50
2023-03-06T02:26:05.270Z,99268.22
2023-03-06T02:28:35.745Z,99266.19
2023-03-06T02:31:06.285Z,99267.88
2023-03-06T02:34:09.025Z,99257.28
2023-03-06T02:37:10.238Z,99265.25
2023-03-06T02:39:43.128Z,99255.59
2023-03-06T02:42:18.010Z,99262.19
2023-03-06T02:44:46.016Z,99262.00
2023-03-06T02:47:14.130Z,99263.22
2023-03-06T02:49:41.846Z,99268.53
2023-03-06T02:52:10.057Z,99262.63
2023-03-06T02:54:40.190Z,99268.31
2023-03-06T02:57:08.229Z,99268.19
2023-03-06T02:59:36.672Z,99267.16
2023-03-06T03:02:05.852Z,99264.38
2023-03-06T03:04:34.835Z,99259.06
2023-03-06T03:07:03.056Z,99262.53
2023-03-06T03:09:36.971Z,99259.97
2023-03-06T03:12:06.241Z,99254.31
2023-03-06T03:14:34.259Z,99256.88
2023-03-06T03:17:02.499Z,99260.50
2023-03-06T03:19:30.838Z,99252.13
2023-03-06T03:21:58.627Z,99254.00
2023-03-06T03:24:26.578Z,99248.91
2023-03-06T03:26:55.154Z,99253.87
2023-03-06T03:29:23.219Z,99257.53
2023-03-06T03:31:51.024Z,99255.91
2023-03-06T03:34:19.063Z,99257.19
2023-03-06T03:36:47.352Z,99249.66
2023-03-06T03:39:15.162Z,99248.72
2023-03-06T03:41:43.752Z,99240.34
2023-03-06T03:44:11.747Z,99244.56
2023-03-06T03:46:39.658Z,99238.69
2023-03-06T03:49:08.695Z,99237.31
2023-03-06T03:51:36.635Z,99235.72
2023-03-06T03:54:06.182Z,99241.66
2023-03-06T03:56:35.564Z,99233.25
2023-03-06T04:02:06.392Z,99240.63
2023-03-06T04:04:35.360Z,99239.94
2023-03-06T04:07:29.068Z,99237.75
2023-03-06T04:10:21.068Z,99239.84
2023-03-06T04:13:12.002Z,99234.69
2023-03-06T04:16:04.211Z,99239.87
2023-03-06T04:18:55.022Z,99252.09
2023-03-06T04:21:46.049Z,99246.34
2023-03-06T04:24:37.033Z,99250.66
2023-03-06T04:27:29.050Z,99247.37
2023-03-06T04:30:20.068Z,99243.88
2023-03-06T04:32:48.158Z,99237.56
2023-03-06T04:35:15.877Z,99240.63
2023-03-06T04:37:44.968Z,99237.59
2023-03-06T04:40:18.244Z,99241.47
2023-03-06T04:42:46.040Z,99239.59
2023-03-06T04:45:14.129Z,99226.75
2023-03-06T04:47:42.340Z,99235.84
2023-03-06T04:50:10.995Z,99235.03
2023-03-06T04:52:40.478Z,99238.00
2023-03-06T04:55:10.932Z,99226.22
2023-03-06T04:57:40.256Z,99225.69
2023-03-06T05:00:12.279Z,99230.72
2023-03-06T05:02:42.638Z,99228.69
2023-03-06T05:05:10.856Z,99230.87
2023-03-06T05:07:39.353Z,99227.50
2023-03-06T05:10:07.902Z,99233.91
2023-03-06T05:12:37.234Z,99241.88
2023-03-06T05:15:05.768Z,99231.50
2023-03-06T05:17:33.781Z,99237.50
2023-03-06T05:20:01.253Z,99230.53
2023-03-06T05:22:29.224Z,99231.72
2023-03-06T05:24:57.030Z,99232.66
2023-03-06T05:27:24.655Z,99233.59
2023-03-06T05:29:52.211Z,99229.97
2023-03-06T05:32:21.905Z,99222.03
2023-03-06T05:34:49.754Z,99233.91
2023-03-06T05:37:44.065Z,99229.88
2023-03-06T05:40:12.647Z,99233.56
2023-03-06T05:42:40.120Z,99231.97
2023-03-06T05:45:08.518Z,99225.22
2023-03-06T05:47:36.882Z,99236.88
2023-03-06T05:50:05.021Z,99224.94
2023-03-06T05:52:32.631Z,99231.63
2023-03-06T05:55:00.590Z,99235.66
2023-03-06T05:57:40.820Z,99236.56
2023-03-06T06:00:28.627Z,99241.09
2023-03-06T06:02:56.557Z,99231.87
2023-03-06T06:05:24.319Z,99234.53
2023-03-06T06:07:51.850Z,99231.47
2023-03-06T06:10:20.056Z,99235.44
2023-03-06T06:12:47.472Z,99226.78
2023-03-06T06:15:42.143Z,99233.78
2023-03-06T06:21:39.970Z,99252.91
2023-03-06T06:24:31.699Z,99250.38
2023-03-06T06:27:11.315Z,99249.88
2023-03-06T06:30:06.962Z,99253.00
2023-03-06T06:32:54.380Z,99256.19
2023-03-06T06:35:47.997Z,99254.78
2023-03-06T06:38:17.230Z,99254.41
2023-03-06T06:41:46.144Z,99251.66
2023-03-06T06:44:00.542Z,99246.63
2023-03-06T06:49:33.592Z,99244.72
2023-03-06T06:52:25.067Z,99244.31
2023-03-06T06:54:53.138Z,99241.81
2023-03-06T06:57:36.300Z,99245.91
2023-03-06T07:00:16.166Z,99254.41
2023-03-06T07:03:08.124Z,99259.66
2023-03-06T07:05:43.988Z,99252.38
2023-03-06T07:08:56.630Z,99257.50
2023-03-06T07:11:38.848Z,99250.31
2023-03-06T07:14:29.963Z,99246.87
2023-03-06T07:17:09.812Z,99251.47
2023-03-06T07:20:10.667Z,99263.44
2023-03-06T07:22:52.389Z,99258.00
2023-03-06T07:25:37.251Z,99269.78
2023-03-06T07:28:18.613Z,99271.72
2023-03-06T07:31:09.981Z,99261.16
2023-03-06T07:33:50.493Z,99263.41
2023-03-06T07:36:42.050Z,99269.97
2023-03-06T07:39:21.255Z,99264.97
2023-03-06T07:42:15.630Z,99270.97
2023-03-06T07:45:08.752Z,99270.16
2023-03-06T07:48:00.050Z,99261.31
2023-03-06T07:50:39.359Z,99272.84
2023-03-06T07:53:31.840Z,99268.38
2023-03-06T07:56:11.998Z,99268.16
2023-03-06T07:59:03.483Z,99272.94
2023-03-06T08:01:43.227Z,99272.50
2023-03-06T08:04:34.459Z,99273.53
2023-03-06T08:07:14.133Z,99287.72
2023-03-06T08:13:36.988Z,99292.47
2023-03-06T08:16:30.094Z,99281.22
2023-03-06T08:19:09.231Z,99282.81
2023-03-06T08:25:30.873Z,99273.50
2023-03-06T08:28:22.180Z,99272.41
2023-03-06T08:31:12.233Z,99269.13
2023-03-06T08:37:33.976Z,99260.78
2023-03-06T08:43:55.741Z,99261.78
2023-03-06T08:46:46.976Z,99262.13
2023-03-06T08:49:26.212Z,99260.06
2023-03-06T08:52:17.158Z,99254.50
2023-03-06T08:54:58.114Z,99253.50
2023-03-06T08:57:50.085Z,99255.53
2023-03-06T09:00:29.366Z,99254.34
2023-03-06T09:03:20.074Z,99245.75
2023-03-06T09:06:11.772Z,99246.28
2023-03-06T09:09:03.981Z,99237.94
2023-03-06T09:11:43.246Z,99228.81
2023-03-06T09:14:34.129Z,99231.06
2023-03-06T09:17:13.266Z,99227.72
2023-03-06T09:23:35.683Z,99225.88
2023-03-06T09:26:39.718Z,99220.59
2023-03-06T09:29:12.617Z,99227.88
2023-03-06T09:31:53.330Z,99226.66
2023-03-06T09:34:33.465Z,99219.41
2023-03-06T09:37:17.678Z,99220.06
2023-03-06T09:39:57.857Z,99214.00
2023-03-06T09:42:34.376Z,99214.66
2023-03-06T09:45:07.233Z,99212.03
2023-03-06T09:48:04.920Z,99203.44
2023-03-06T09:50:46.586Z,99203.56
2023-03-06T09:53:45.394Z,99207.84
2023-03-06T09:56:32.036Z,99203.50
2023-03-06T09:59:26.359Z,99202.78
2023-03-06T10:02:21.183Z,99196.38
2023-03-06T10:05:24.765Z,99195.72
2023-03-06T10:08:10.238Z,99191.56
2023-03-06T10:11:04.116Z,99189.69
2023-03-06T10:13:50.028Z,99186.00
2023-03-06T10:16:41.451Z,99194.97
2023-03-06T10:19:21.578Z,99199.06
2023-03-06T10:22:37.174Z,99188.84
2023-03-06T10:26:01.442Z,99195.69
2023-03-06T10:29:06.675Z,99187.81
2023-03-06T10:31:52.347Z,99195.75
2023-03-06T10:34:44.477Z,99187.19
2023-03-06T10:41:08.123Z,99184.75
2023-03-06T10:44:04.925Z,99182.56
2023-03-06T10:46:46.921Z,99167.19
2023-03-06T10:49:38.196Z,99161.06
2023-03-06T10:52:17.188Z,99155.47
2023-03-06T10:55:23.203Z,99162.22
2023-03-06T11:36:32.272Z,99042.53
2023-03-06T11:39:05.290Z,99042.53
2023-03-06T11:41:49.732Z,99033.69
2023-03-06T11:44:37.109Z,99024.56
2023-03-06T11:47:12.449Z,99022.47
2023-03-06T11:50:21.998Z,99026.37
2023-03-06T11:52:53.761Z,99015.28
2023-03-06T11:55:34.393Z,99012.25
2023-03-06T11:58:17.785Z,99010.47
2023-03-06T12:00:54.191Z,99007.09
2023-03-06T12:03:39.112Z,99003.88
2023-03-06T12:06:27.974Z,98995.69
2023-03-06T12:09:14.980Z,98996.69
2023-03-06T12:11:53.257Z,98992.84
2023-03-06T12:15:00.586Z,98988.41
2023-03-06T12:17:46.633Z,98974.50
2023-03-06T12:20:35.358Z,98988.81
2023-03-06T12:23:21.134Z,98986.38
2023-03-06T12:26:11.122Z,98979.59
2023-03-06T12:29:33.749Z,98972.13
2023-03-06T12:32:50.123Z,98969.78
2023-03-06T12:35:59.263Z,98970.28
2023-03-06T12:39:22.205Z,98970.47
2023-03-06T12:41:56.116Z,98962.75
2023-03-06T12:44:51.078Z,98963.66
2023-03-06T12:47:23.554Z,98957.00
2023-03-06T12:50:24.488Z,98953.69
2023-03-06T12:53:01.198Z,98948.72
2023-03-06T12:55:40.143Z,98950.25
2023-03-06T12:58:30.098Z,98941.44
2023-03-06T13:01:38.084Z,98937.88
2023-03-06T13:04:29.294Z,98943.47
2023-03-06T13:07:09.188Z,98937.81
2023-03-06T13:10:05.315Z,98936.41
2023-03-06T13:13:00.099Z,98932.88
2023-03-06T13:15:37.124Z,98936.34
2023-03-06T13:18:23.093Z,98929.38
2023-03-06T13:20:56.351Z,98914.94
2023-03-06T13:23:29.926Z,98915.09
2023-03-06T13:26:26.109Z,98910.50
2023-03-06T13:29:41.103Z,98907.00
2023-03-06T13:32:18.985Z,98908.59
2023-03-06T13:34:50.171Z,98900.97
2023-03-06T13:37:25.340Z,98897.00
2023-03-06T13:40:01.783Z,98897.66
2023-03-06T13:42:44.107Z,98894.91
2023-03-06T13:45:46.396Z,98892.75
2023-03-06T13:48:44.344Z,98889.13
2023-03-06T13:51:26.313Z,98894.38
2023-03-06T13:54:25.047Z,98881.00
2023-03-06T13:57:38.152Z,98880.50
2023-03-06T14:03:32.056Z,98880.59
2023-03-06T14:06:02.321Z,98888.75
2023-03-06T14:08:41.373Z,98880.59
2023-03-06T14:11:20.084Z,98873.53
2023-03-06T14:13:55.092Z,98874.66
2023-03-06T14:16:34.896Z,98866.97
2023-03-06T14:19:22.598Z,98871.75
2023-03-06T14:21:58.317Z,98871.06
2023-03-06T14:24:37.569Z,98877.78
2023-03-06T14:27:13.151Z,98882.16
2023-03-06T14:29:43.324Z,98860.88
2023-03-06T14:32:28.352Z,98861.78
2023-03-06T14:35:08.161Z,98879.56
2023-03-06T14:37:51.043Z,98871.63
2023-03-06T14:40:32.936Z,98877.16
2023-03-06T14:43:32.136Z,98876.41
2023-03-06T14:46:10.185Z,98871.81
2023-03-06T14:48:46.857Z,98871.97
2023-03-06T14:51:23.060Z,98869.75
2023-03-06T14:53:59.404Z,98876.81
2023-03-06T14:56:29.561Z,98867.22
2023-03-06T14:59:04.465Z,98863.41
2023-03-06T15:09:47.959Z,98849.81
2023-03-06T15:12:22.814Z,98849.81
2023-03-06T15:14:58.993Z,98859.06
2023-03-06T15:20:01.263Z,98859.66
2023-03-06T15:22:31.711Z,98855.09
2023-03-06T15:25:32.345Z,98855.50
2023-03-06T15:28:03.387Z,98848.06
2023-03-06T15:30:33.669Z,98849.44
2023-03-06T15:33:22.848Z,98850.19
2023-03-06T15:36:00.985Z,98849.81
2023-03-06T15:38:41.907Z,98850.09
2023-03-06T15:41:36.064Z,98857.94
2023-03-06T15:44:20.724Z,98854.16
2023-03-06T15:46:53.905Z,98854.03
2023-03-06T15:49:27.330Z,98852.81
2023-03-06T15:52:30.347Z,98855.69
2023-03-06T15:55:26.267Z,98846.03
2023-03-06T15:58:04.368Z,98858.53
2023-03-06T16:00:38.682Z,98854.34
2023-03-06T16:03:11.068Z,98858.69
2023-03-06T16:05:41.267Z,98860.69
2023-03-06T16:08:15.187Z,98872.00
2023-03-06T16:10:44.928Z,98861.31
2023-03-06T16:13:19.010Z,98860.03
2023-03-06T16:15:49.259Z,98857.84
2023-03-06T16:21:17.086Z,98862.94
2023-03-06T16:23:50.876Z,98860.16
2023-03-06T16:26:23.837Z,98863.16
2023-03-06T16:28:52.346Z,98865.78
2023-03-06T16:31:32.011Z,98872.75
2023-03-06T16:34:03.625Z,98871.53
2023-03-06T16:36:48.439Z,98874.81
2023-03-06T16:39:20.908Z,98883.69
2023-03-06T16:41:52.380Z,98883.22
2023-03-06T16:44:23.254Z,98884.84
2023-03-06T16:47:01.422Z,98891.06
2023-03-06T16:49:31.466Z,98888.47
2023-03-06T16:51:59.001Z,98893.22
2023-03-06T16:54:26.614Z,98892.91
2023-03-06T16:56:54.828Z,98896.91
2023-03-06T16:59:22.434Z,98885.63
2023-03-06T17:01:50.126Z,98886.81
2023-03-06T17:04:19.482Z,98885.19
2023-03-06T17:06:47.178Z,98881.75
2023-03-06T17:09:14.815Z,98887.50
2023-03-06T17:11:46.732Z,98879.87
2023-03-06T17:14:14.559Z,98890.41
2023-03-06T17:16:42.804Z,98886.69
2023-03-06T17:19:14.495Z,98879.50
2023-03-06T17:21:43.487Z,98878.66
2023-03-06T17:24:11.407Z,98878.34
2023-03-06T17:26:40.233Z,98879.28
2023-03-06T17:29:09.535Z,98886.78
2023-03-06T17:31:40.499Z,98889.25
2023-03-06T17:34:08.967Z,98886.78
2023-03-06T17:36:36.648Z,98890.44
2023-03-06T17:39:05.025Z,98881.13
2023-03-06T17:41:34.228Z,98882.19
2023-03-06T17:44:02.108Z,98886.63
2023-03-06T17:46:32.001Z,98889.00
2023-03-06T17:49:00.616Z,98892.03
2023-03-06T17:51:28.763Z,98887.56
2023-03-06T17:53:56.637Z,98892.25
2023-03-06T17:56:24.800Z,98888.34
2023-03-06T17:58:52.880Z,98882.28
2023-03-06T18:01:27.644Z,98893.09
2023-03-06T18:03:55.738Z,98891.31
2023-03-06T18:06:24.957Z,98896.09
2023-03-06T18:08:53.096Z,98889.41
2023-03-06T18:11:22.218Z,98881.59
2023-03-06T18:13:50.320Z,98895.81
2023-03-06T18:16:20.436Z,98897.22
2023-03-06T18:18:52.156Z,98890.41
2023-03-06T18:21:20.278Z,98884.56
2023-03-06T18:23:48.629Z,98888.00
2023-03-06T18:26:18.830Z,98886.75
2023-03-06T18:28:48.807Z,98878.31
2023-03-06T18:31:18.170Z,98881.94
2023-03-06T18:33:48.251Z,98875.56
2023-03-06T18:36:16.338Z,98876.66
2023-03-06T18:38:45.680Z,98873.13
2023-03-06T18:41:14.259Z,98879.69
2023-03-06T18:43:41.835Z,98888.63
2023-03-06T18:46:09.924Z,98888.19
2023-03-06T18:48:38.135Z,98892.28
2023-03-06T18:51:10.702Z,98895.00
2023-03-06T18:53:40.089Z,98903.03
2023-03-06T18:56:10.717Z,98915.62
2023-03-06T18:58:38.695Z,98914.56
2023-03-06T19:01:07.474Z,98907.72
2023-03-06T19:03:35.274Z,98907.53
2023-03-06T19:06:08.720Z,98915.06
2023-03-06T19:08:38.094Z,98910.97
2023-03-06T19:11:12.464Z,98901.47
2023-03-06T19:13:40.291Z,98896.72
2023-03-06T19:16:08.802Z,98902.84
2023-03-06T19:18:36.771Z,98892.66
2023-03-06T19:21:12.299Z,98886.19
2023-03-06T19:23:40.739Z,98892.91
2023-03-06T19:26:08.795Z,98881.59
2023-03-06T19:28:38.063Z,98878.19
2023-03-06T19:31:14.830Z,98877.72
2023-03-06T19:33:43.599Z,98870.16
2023-03-06T19:36:21.125Z,98878.19
2023-03-06T19:38:54.432Z,98881.28
2023-03-06T19:41:22.735Z,98876.03
2023-03-06T19:51:33.661Z,98882.97
2023-03-06T19:54:02.145Z,98882.97
2023-03-06T19:56:31.925Z,98880.69
2023-03-06T19:58:59.871Z,98880.84
2023-03-06T20:01:45.748Z,98879.50
2023-03-06T20:04:32.132Z,98879.81
2023-03-06T20:07:15.725Z,98878.66
2023-03-06T20:10:06.610Z,98876.81
2023-03-06T20:12:50.643Z,98881.37
2023-03-06T20:15:39.033Z,98883.22
2023-03-06T20:18:47.742Z,98882.66
2023-03-06T20:21:32.879Z,98876.28
2023-03-06T20:24:26.010Z,98884.78
2023-03-06T20:27:10.750Z,98881.09
2023-03-06T20:29:43.404Z,98878.75
2023-03-06T20:32:28.219Z,98875.84
2023-03-06T20:35:00.203Z,98879.13
2023-03-06T20:37:47.632Z,98886.34
2023-03-06T20:40:41.520Z,98880.69
2023-03-06T20:43:33.810Z,98882.78
2023-03-06T20:46:20.296Z,98892.03
2023-03-06T20:49:08.773Z,98893.88
2023-03-06T20:51:39.273Z,98896.47
2023-03-06T20:54:19.125Z,98899.72
2023-03-06T20:57:06.960Z,98899.94
2023-03-06T20:59:56.989Z,98898.00
2023-03-06T21:02:47.151Z,98895.78
2023-03-06T21:05:31.002Z,98895.53
2023-03-06T21:08:38.920Z,98897.19
2023-03-06T21:11:06.385Z,98893.91
2023-03-06T21:13:34.470Z,98902.97
2023-03-06T21:16:06.683Z,98905.00
2023-03-06T21:18:34.904Z,98908.56
2023-03-06T21:21:22.361Z,98899.31
2023-03-06T21:23:51.149Z,98898.41
2023-03-06T21:26:23.888Z,98903.97
2023-03-06T21:28:52.212Z,98898.19
2023-03-06T21:31:21.414Z,98903.59
2023-03-06T21:33:49.876Z,98899.47
2023-03-06T21:36:19.673Z,98902.56
2023-03-06T21:38:48.594Z,98906.22
2023-03-06T21:41:18.588Z,98900.56
2023-03-06T21:43:47.088Z,98905.69
2023-03-06T21:46:43.432Z,98910.22
2023-03-06T21:49:11.244Z,98899.75
2023-03-06T21:51:39.341Z,98903.03
2023-03-06T21:54:07.240Z,98901.41
2023-03-06T21:56:35.074Z,98898.84
2023-03-06T21:59:17.562Z,98900.62
2023-03-06T22:01:46.778Z,98897.06
2023-03-06T22:04:14.817Z,98902.63
2023-03-06T22:06:42.416Z,98898.06
2023-03-06T22:09:12.941Z,98896.22
2023-03-06T22:11:42.247Z,98898.78
2023-03-06T22:14:09.864Z,98898.94
2023-03-06T22:16:37.520Z,98898.53
2023-03-06T22:19:05.434Z,98902.84
2023-03-06T22:21:33.131Z,98904.25
2023-03-06T22:24:00.759Z,98900.22
2023-03-06T22:26:29.641Z,98897.22
2023-03-06T22:28:57.436Z,98898.00
2023-03-06T22:31:26.997Z,98895.22
2023-03-06T22:33:56.107Z,98896.87
2023-03-06T22:36:24.110Z,98894.53
2023-03-06T22:38:56.897Z,98899.41
2023-03-06T22:41:28.148Z,98901.03
2023-03-06T22:43:59.860Z,98903.59
2023-03-06T22:46:28.385Z,98900.19
2023-03-06T22:49:00.157Z,98894.94
2023-03-06T22:51:28.766Z,98896.78
2023-03-06T22:53:56.265Z,98906.19
2023-03-06T22:56:24.400Z,98907.62
2023-03-06T22:58:52.370Z,98907.38
2023-03-06T23:01:21.179Z,98910.06
2023-03-06T23:03:53.872Z,98913.50
2023-03-06T23:06:27.401Z,98914.22
2023-03-06T23:09:04.074Z,98912.13
2023-03-06T23:11:32.072Z,98915.47
2023-03-06T23:14:19.098Z,98897.53
2023-03-06T23:17:05.255Z,98897.75
2023-03-06T23:19:51.491Z,98899.00
2023-03-06T23:22:37.677Z,98901.63
2023-03-06T23:25:24.071Z,98900.84
2023-03-06T23:27:51.956Z,98898.06
2023-03-06T23:30:19.516Z,98904.91
2023-03-06T23:32:47.145Z,98901.50
2023-03-06T23:35:15.134Z,98909.56
2023-03-06T23:37:42.778Z,98905.94
2023-03-06T23:40:10.956Z,98912.91
2023-03-06T23:42:38.876Z,98908.19
2023-03-06T23:45:07.481Z,98904.37
2023-03-06T23:47:35.039Z,98905.84
2023-03-06T23:50:03.026Z,98908.78
2023-03-06T23:52:30.874Z,98901.44
2023-03-06T23:54:58.475Z,98907.09
2023-03-06T23:57:26.257Z,98904.59
2023-03-06T23:59:53.970Z,98910.44
